METAR Data
IDs: Format: Raw Decoded Include TAF

Data at: 0208 UTC 29 Nov 2020

METAR for:KICL (Clarinda/Schenck Fld, IA, US)
Text:KICL 290155Z AUTO 20006KT 10SM CLR 02/M01 A3005 RMK AO2
Temperature: 2.0°C ( 36°F)
Dewpoint: -1.0°C ( 30°F) [RH = 80%]
Pressure (altimeter):30.05 inches Hg (1017.7 mb)
Winds:from the SSW (200 degrees) at 7 MPH (6 knots; 3.1 m/s)
Visibility:10 or more sm (16+ km)
Ceiling:at least 12,000 feet AGL
Clouds:sky clear below 12,000 feet AGL
QC Flag:automated observation with no human augmentation